DLH255 EFHK-EDDF
Flight info
| Callsign | DLH255 |
|---|---|
| Flight time | N/A |
| Altitude | 38000 |
| Route | NUNTO Y369 REKDO DCT KOSKA DCT BIKRU DCT HLZ DCT RIMET/N0453F310 T157 KOKEB/N0397F230 T157 KERAX KERAX5D |
| Aircraft | A346/H-SDE2E3FGHIJ3J4J5M1RWXY/LB1D1 |
Departure
| Time | 2026-04-26 15:23 |
|---|---|
| Airport | Helsinki Vantaa Airport (EFHK) |
Arrival
| Time | N/A |
|---|---|
| Airport | Frankfurt Main Airport (EDDF) |
| Time | Latitude | Longitude | Altitude | Speed | Heading |
|---|---|---|---|---|---|
| 2026-04-26 14:46 | 60.31329 | 24.95754 | 171 ft | 0 kts | 315° |
| 2026-04-26 15:06 | 60.31323 | 24.95765 | 172 ft | 4 kts | 316° |
| 2026-04-26 15:07 | 60.31295 | 24.95820 | 172 ft | 3 kts | 281° |
| 2026-04-26 15:07 | 60.31293 | 24.95864 | 173 ft | 4 kts | 257° |
| 2026-04-26 15:07 | 60.31303 | 24.95903 | 173 ft | 4 kts | 228° |
| 2026-04-26 15:08 | 60.31319 | 24.95938 | 173 ft | 1 kts | 227° |
| 2026-04-26 15:08 | 60.31320 | 24.95938 | 173 ft | 0 kts | 227° |
| 2026-04-26 15:10 | 60.31315 | 24.95928 | 173 ft | 3 kts | 227° |
| 2026-04-26 15:11 | 60.31292 | 24.95878 | 173 ft | 7 kts | 227° |
| 2026-04-26 15:11 | 60.31251 | 24.95789 | 172 ft | 11 kts | 227° |
| 2026-04-26 15:11 | 60.31191 | 24.95657 | 171 ft | 11 kts | 227° |
| 2026-04-26 15:11 | 60.31170 | 24.95523 | 170 ft | 11 kts | 304° |
| 2026-04-26 15:12 | 60.31234 | 24.95388 | 168 ft | 15 kts | 317° |
| 2026-04-26 15:12 | 60.31319 | 24.95232 | 166 ft | 18 kts | 317° |
| 2026-04-26 15:12 | 60.31396 | 24.95082 | 165 ft | 12 kts | 313° |
| 2026-04-26 15:12 | 60.31441 | 24.95003 | 164 ft | 9 kts | 343° |
| 2026-04-26 15:13 | 60.31511 | 24.95050 | 165 ft | 13 kts | 40° |
| 2026-04-26 15:13 | 60.31580 | 24.95192 | 165 ft | 16 kts | 47° |
| 2026-04-26 15:13 | 60.31663 | 24.95372 | 167 ft | 19 kts | 47° |
| 2026-04-26 15:13 | 60.31758 | 24.95580 | 168 ft | 21 kts | 46° |
| 2026-04-26 15:14 | 60.31865 | 24.95816 | 169 ft | 24 kts | 47° |
| 2026-04-26 15:14 | 60.31984 | 24.96080 | 171 ft | 26 kts | 47° |
| 2026-04-26 15:14 | 60.32096 | 24.96326 | 173 ft | 19 kts | 48° |
| 2026-04-26 15:14 | 60.32185 | 24.96523 | 174 ft | 17 kts | 47° |
| 2026-04-26 15:15 | 60.32271 | 24.96711 | 176 ft | 15 kts | 48° |
| 2026-04-26 15:15 | 60.32278 | 24.96864 | 177 ft | 13 kts | 137° |
| 2026-04-26 15:15 | 60.32193 | 24.96964 | 179 ft | 16 kts | 152° |
| 2026-04-26 15:15 | 60.32087 | 24.97074 | 180 ft | 19 kts | 154° |
| 2026-04-26 15:16 | 60.31962 | 24.97201 | 182 ft | 21 kts | 153° |
| 2026-04-26 15:16 | 60.31823 | 24.97346 | 184 ft | 23 kts | 153° |
| 2026-04-26 15:16 | 60.31673 | 24.97501 | 191 ft | 25 kts | 153° |
| 2026-04-26 15:16 | 60.31512 | 24.97666 | 191 ft | 27 kts | 153° |
| 2026-04-26 15:17 | 60.31341 | 24.97842 | 201 ft | 28 kts | 153° |
| 2026-04-26 15:17 | 60.31224 | 24.97963 | 200 ft | 29 kts | 153° |
| 2026-04-26 15:17 | 60.30992 | 24.98191 | 195 ft | 23 kts | 157° |
| 2026-04-26 15:17 | 60.30843 | 24.98322 | 207 ft | 24 kts | 156° |
| 2026-04-26 15:18 | 60.30718 | 24.98431 | 200 ft | 8 kts | 155° |
| 2026-04-26 15:18 | 60.30671 | 24.98529 | 204 ft | 11 kts | 113° |
| 2026-04-26 15:18 | 60.30668 | 24.98553 | 195 ft | 0 kts | 98° |
| 2026-04-26 15:20 | 60.30668 | 24.98554 | 195 ft | 1 kts | 98° |
| 2026-04-26 15:21 | 60.30667 | 24.98587 | 196 ft | 4 kts | 89° |
| 2026-04-26 15:21 | 60.30678 | 24.98669 | 198 ft | 8 kts | 63° |
| 2026-04-26 15:21 | 60.30707 | 24.98763 | 211 ft | 8 kts | 41° |
| 2026-04-26 15:21 | 60.30768 | 24.98763 | 203 ft | 11 kts | 334° |
| 2026-04-26 15:22 | 60.30776 | 24.98755 | 202 ft | 0 kts | 333° |
| 2026-04-26 15:22 | 60.30785 | 24.98746 | 202 ft | 10 kts | 333° |
| 2026-04-26 15:22 | 60.31056 | 24.98469 | 202 ft | 77 kts | 333° |
| 2026-04-26 15:22 | 60.31716 | 24.97794 | 182 ft | 133 kts | 334° |
| 2026-04-26 15:23 | 60.32672 | 24.96862 | 368 ft | 164 kts | 335° |
| 2026-04-26 15:23 | 60.33686 | 24.95829 | 1026 ft | 166 kts | 324° |
| 2026-04-26 15:23 | 60.34228 | 24.93749 | 1859 ft | 174 kts | 290° |
| 2026-04-26 15:23 | 60.34492 | 24.91368 | 2520 ft | 177 kts | 293° |
| 2026-04-26 15:24 | 60.34835 | 24.88869 | 2949 ft | 192 kts | 294° |
| 2026-04-26 15:24 | 60.35067 | 24.86090 | 3378 ft | 217 kts | 274° |
| 2026-04-26 15:24 | 60.34551 | 24.82941 | 3730 ft | 253 kts | 250° |
| 2026-04-26 15:24 | 60.33627 | 24.79760 | 4351 ft | 269 kts | 245° |
| 2026-04-26 15:25 | 60.32640 | 24.76523 | 5146 ft | 272 kts | 246° |
| 2026-04-26 15:25 | 60.31998 | 24.74351 | 5509 ft | 272 kts | 247° |
| 2026-04-26 15:25 | 60.30736 | 24.69877 | 5799 ft | 273 kts | 248° |
| 2026-04-26 15:25 | 60.29831 | 24.66570 | 5799 ft | 273 kts | 249° |
| 2026-04-26 15:26 | 60.28910 | 24.63192 | 5796 ft | 272 kts | 249° |
| 2026-04-26 15:26 | 60.27994 | 24.59847 | 5803 ft | 272 kts | 249° |
| 2026-04-26 15:26 | 60.27077 | 24.56498 | 5800 ft | 273 kts | 249° |
| 2026-04-26 15:26 | 60.26159 | 24.53154 | 5806 ft | 272 kts | 249° |
| 2026-04-26 15:27 | 60.25239 | 24.49815 | 5794 ft | 272 kts | 249° |
| 2026-04-26 15:27 | 60.24316 | 24.46467 | 5856 ft | 276 kts | 249° |
| 2026-04-26 15:27 | 60.23369 | 24.43018 | 6529 ft | 283 kts | 249° |
| 2026-04-26 15:27 | 60.22420 | 24.39591 | 7745 ft | 278 kts | 248° |
| 2026-04-26 15:28 | 60.21479 | 24.36202 | 8871 ft | 277 kts | 249° |
| 2026-04-26 15:28 | 60.20546 | 24.32833 | 9837 ft | 281 kts | 248° |
| 2026-04-26 15:28 | 60.19570 | 24.29298 | 10600 ft | 291 kts | 248° |
| 2026-04-26 15:28 | 60.18574 | 24.25682 | 11090 ft | 308 kts | 248° |
| 2026-04-26 15:29 | 60.17501 | 24.21802 | 11541 ft | 327 kts | 247° |
| 2026-04-26 15:29 | 60.16359 | 24.17694 | 11999 ft | 346 kts | 246° |
| 2026-04-26 15:29 | 60.13890 | 24.08878 | 13206 ft | 373 kts | 245° |
| 2026-04-26 15:30 | 60.11301 | 23.99714 | 14881 ft | 381 kts | 245° |
| 2026-04-26 15:30 | 60.09985 | 23.95058 | 15719 ft | 385 kts | 245° |
| 2026-04-26 15:30 | 60.08653 | 23.90370 | 16501 ft | 390 kts | 246° |
| 2026-04-26 15:31 | 60.07339 | 23.85574 | 17234 ft | 395 kts | 248° |
| 2026-04-26 15:31 | 60.04787 | 23.75766 | 18684 ft | 404 kts | 249° |
| 2026-04-26 15:31 | 60.03482 | 23.70765 | 19401 ft | 407 kts | 249° |
| 2026-04-26 15:32 | 60.01276 | 23.62359 | 20574 ft | 413 kts | 249° |
| 2026-04-26 15:32 | 59.99469 | 23.55506 | 21486 ft | 419 kts | 250° |
| 2026-04-26 15:32 | 59.98100 | 23.50333 | 22174 ft | 423 kts | 250° |
| 2026-04-26 15:33 | 59.96714 | 23.45110 | 22847 ft | 427 kts | 250° |
| 2026-04-26 15:33 | 59.95313 | 23.39846 | 23517 ft | 431 kts | 250° |
| 2026-04-26 15:33 | 59.93916 | 23.34603 | 24020 ft | 435 kts | 250° |
| 2026-04-26 15:33 | 59.92486 | 23.29245 | 24559 ft | 439 kts | 250° |
| 2026-04-26 15:34 | 59.91038 | 23.23837 | 25090 ft | 443 kts | 250° |
| 2026-04-26 15:34 | 59.89576 | 23.18396 | 25614 ft | 447 kts | 250° |
| 2026-04-26 15:34 | 59.88098 | 23.12907 | 26108 ft | 451 kts | 251° |
| 2026-04-26 15:34 | 59.86594 | 23.07377 | 26616 ft | 455 kts | 251° |
| 2026-04-26 15:35 | 59.85088 | 23.01810 | 27144 ft | 458 kts | 252° |
| 2026-04-26 15:35 | 59.83573 | 22.96213 | 27650 ft | 462 kts | 252° |
| 2026-04-26 15:35 | 59.82053 | 22.90637 | 28094 ft | 466 kts | 252° |
| 2026-04-26 15:35 | 59.80499 | 22.84946 | 28607 ft | 469 kts | 252° |
| 2026-04-26 15:36 | 59.78938 | 22.79225 | 29114 ft | 473 kts | 252° |
| 2026-04-26 15:36 | 59.77365 | 22.73476 | 29721 ft | 473 kts | 252° |
| 2026-04-26 15:36 | 59.75790 | 22.67744 | 30397 ft | 471 kts | 252° |
| 2026-04-26 15:36 | 59.74223 | 22.62041 | 31017 ft | 470 kts | 252° |
| 2026-04-26 15:37 | 59.72659 | 22.56364 | 31597 ft | 469 kts | 251° |
| 2026-04-26 15:37 | 59.71091 | 22.50686 | 32152 ft | 469 kts | 251° |
| 2026-04-26 15:37 | 59.69542 | 22.45099 | 32695 ft | 468 kts | 250° |
| 2026-04-26 15:37 | 59.67971 | 22.39450 | 33248 ft | 468 kts | 250° |
| 2026-04-26 15:38 | 59.66399 | 22.33812 | 33796 ft | 467 kts | 250° |
| 2026-04-26 15:38 | 59.64829 | 22.28200 | 34281 ft | 467 kts | 249° |
| 2026-04-26 15:38 | 59.63248 | 22.22561 | 34695 ft | 467 kts | 249° |
| 2026-04-26 15:38 | 59.61668 | 22.16938 | 35111 ft | 467 kts | 249° |
| 2026-04-26 15:39 | 59.60085 | 22.11321 | 35508 ft | 468 kts | 248° |
| 2026-04-26 15:39 | 59.58498 | 22.05703 | 35910 ft | 468 kts | 248° |
| 2026-04-26 15:39 | 59.56930 | 22.00166 | 36278 ft | 468 kts | 248° |
| 2026-04-26 15:39 | 59.55853 | 21.96374 | 36447 ft | 469 kts | 248° |
| 2026-04-26 15:40 | 59.53734 | 21.88928 | 36889 ft | 471 kts | 247° |
| 2026-04-26 15:40 | 59.52127 | 21.83293 | 37160 ft | 472 kts | 247° |
| 2026-04-26 15:40 | 59.50509 | 21.77635 | 37406 ft | 474 kts | 246° |
| 2026-04-26 15:40 | 59.48882 | 21.71966 | 37697 ft | 475 kts | 246° |
| 2026-04-26 15:41 | 59.47250 | 21.66289 | 37943 ft | 477 kts | 246° |
| 2026-04-26 15:41 | 59.45607 | 21.60592 | 37961 ft | 479 kts | 246° |
| 2026-04-26 15:41 | 59.42335 | 21.49276 | 37981 ft | 479 kts | 246° |
| 2026-04-26 15:42 | 59.39037 | 21.37899 | 37989 ft | 479 kts | 246° |
| 2026-04-26 15:42 | 59.35726 | 21.26538 | 37997 ft | 479 kts | 246° |
| 2026-04-26 15:43 | 59.32404 | 21.15197 | 37993 ft | 479 kts | 246° |
| 2026-04-26 15:44 | 59.27449 | 20.98395 | 37991 ft | 477 kts | 246° |
| 2026-04-26 15:44 | 59.22442 | 20.81570 | 38008 ft | 478 kts | 244° |
| 2026-04-26 15:45 | 59.16575 | 20.65756 | 38026 ft | 486 kts | 235° |
| 2026-04-26 15:46 | 59.09326 | 20.51759 | 38017 ft | 491 kts | 228° |
| 2026-04-26 15:46 | 59.05120 | 20.44338 | 38028 ft | 491 kts | 228° |
| 2026-04-26 15:47 | 58.96719 | 20.29536 | 38040 ft | 490 kts | 228° |
| 2026-04-26 15:48 | 58.91656 | 20.20665 | 38049 ft | 491 kts | 228° |
| 2026-04-26 15:48 | 58.86582 | 20.11821 | 38050 ft | 491 kts | 228° |
| 2026-04-26 15:49 | 58.81511 | 20.03015 | 38056 ft | 490 kts | 228° |
| 2026-04-26 15:49 | 58.76465 | 19.94279 | 38058 ft | 491 kts | 228° |
| 2026-04-26 15:50 | 58.71378 | 19.85523 | 38049 ft | 489 kts | 229° |
| 2026-04-26 15:50 | 58.66303 | 19.76815 | 38061 ft | 488 kts | 229° |
| 2026-04-26 15:51 | 58.61234 | 19.68154 | 38064 ft | 488 kts | 229° |
| 2026-04-26 15:51 | 58.56152 | 19.59497 | 38080 ft | 488 kts | 229° |
| 2026-04-26 15:52 | 58.51102 | 19.50931 | 38081 ft | 488 kts | 229° |
| 2026-04-26 15:52 | 58.46008 | 19.42329 | 38087 ft | 488 kts | 229° |
| 2026-04-26 15:53 | 58.40909 | 19.33756 | 38062 ft | 488 kts | 229° |
| 2026-04-26 15:53 | 58.35803 | 19.25205 | 38086 ft | 488 kts | 229° |
| 2026-04-26 15:54 | 58.30724 | 19.16731 | 38094 ft | 488 kts | 229° |
| 2026-04-26 15:54 | 58.25606 | 19.08226 | 38097 ft | 488 kts | 228° |
| 2026-04-26 15:55 | 58.20486 | 18.99753 | 38096 ft | 489 kts | 228° |
| 2026-04-26 15:55 | 58.15351 | 18.91290 | 38081 ft | 489 kts | 228° |
| 2026-04-26 15:56 | 58.10246 | 18.82907 | 38096 ft | 489 kts | 228° |
| 2026-04-26 15:56 | 58.05097 | 18.74484 | 38120 ft | 489 kts | 228° |
| 2026-04-26 15:57 | 57.99945 | 18.66092 | 38112 ft | 489 kts | 228° |
| 2026-04-26 15:57 | 57.94791 | 18.57730 | 38074 ft | 488 kts | 228° |
| 2026-04-26 15:58 | 57.89689 | 18.49488 | 38116 ft | 486 kts | 228° |
| 2026-04-26 15:58 | 57.84554 | 18.41221 | 38124 ft | 486 kts | 228° |
| 2026-04-26 15:59 | 57.79418 | 18.32983 | 38125 ft | 486 kts | 227° |
| 2026-04-26 15:59 | 57.74275 | 18.24766 | 38125 ft | 486 kts | 227° |
| 2026-04-26 16:00 | 57.69166 | 18.16643 | 38103 ft | 483 kts | 228° |
| 2026-04-26 16:00 | 57.64054 | 18.08542 | 38134 ft | 481 kts | 228° |
| 2026-04-26 16:01 | 57.58943 | 18.00466 | 38132 ft | 481 kts | 227° |
| 2026-04-26 16:01 | 57.53833 | 17.92425 | 38136 ft | 481 kts | 227° |
| 2026-04-26 16:02 | 57.48745 | 17.84450 | 38135 ft | 481 kts | 227° |
| 2026-04-26 16:02 | 57.43617 | 17.76444 | 38143 ft | 481 kts | 227° |
| 2026-04-26 16:03 | 57.38484 | 17.68460 | 38146 ft | 481 kts | 227° |
| 2026-04-26 16:03 | 57.33346 | 17.60499 | 38147 ft | 481 kts | 227° |
| 2026-04-26 16:04 | 57.28237 | 17.52612 | 38150 ft | 481 kts | 227° |
| 2026-04-26 16:04 | 57.23089 | 17.44698 | 38140 ft | 480 kts | 227° |
| 2026-04-26 16:05 | 57.17959 | 17.36840 | 38148 ft | 479 kts | 227° |
| 2026-04-26 16:05 | 57.12826 | 17.29003 | 38156 ft | 479 kts | 227° |
| 2026-04-26 16:06 | 57.07689 | 17.21190 | 38156 ft | 479 kts | 227° |
| 2026-04-26 16:06 | 57.02580 | 17.13448 | 38160 ft | 479 kts | 227° |
| 2026-04-26 16:07 | 56.97441 | 17.05693 | 38155 ft | 478 kts | 227° |
| 2026-04-26 16:07 | 56.92301 | 16.97962 | 38162 ft | 478 kts | 227° |
| 2026-04-26 16:08 | 56.87191 | 16.90304 | 38166 ft | 478 kts | 227° |
| 2026-04-26 16:08 | 56.82041 | 16.82615 | 38161 ft | 478 kts | 227° |
| 2026-04-26 16:09 | 56.76889 | 16.74952 | 38144 ft | 477 kts | 227° |
| 2026-04-26 16:09 | 56.71736 | 16.67314 | 38155 ft | 477 kts | 227° |
| 2026-04-26 16:10 | 56.66581 | 16.59701 | 38157 ft | 477 kts | 226° |
| 2026-04-26 16:10 | 56.61455 | 16.52158 | 38151 ft | 477 kts | 226° |
| 2026-04-26 16:11 | 56.56286 | 16.44581 | 38154 ft | 477 kts | 226° |
| 2026-04-26 16:11 | 56.51132 | 16.37049 | 38128 ft | 474 kts | 226° |
| 2026-04-26 16:12 | 56.45993 | 16.29569 | 38162 ft | 473 kts | 226° |
| 2026-04-26 16:12 | 56.38315 | 16.18446 | 38173 ft | 473 kts | 226° |
| 2026-04-26 16:13 | 56.33170 | 16.11023 | 38177 ft | 473 kts | 226° |
| 2026-04-26 16:13 | 56.28025 | 16.03624 | 38178 ft | 472 kts | 226° |
| 2026-04-26 16:14 | 56.22884 | 15.96263 | 38189 ft | 472 kts | 225° |
| 2026-04-26 16:15 | 56.15200 | 15.85305 | 38193 ft | 472 kts | 225° |
| 2026-04-26 16:15 | 56.10044 | 15.77985 | 38197 ft | 472 kts | 225° |
| 2026-04-26 16:16 | 56.02324 | 15.67070 | 38202 ft | 471 kts | 225° |
| 2026-04-26 16:16 | 55.97216 | 15.59880 | 38207 ft | 471 kts | 225° |
| 2026-04-26 16:17 | 55.92062 | 15.52651 | 38211 ft | 471 kts | 225° |
| 2026-04-26 16:17 | 55.86912 | 15.45452 | 38217 ft | 471 kts | 225° |
| 2026-04-26 16:18 | 55.79200 | 15.34719 | 38191 ft | 468 kts | 225° |
| 2026-04-26 16:19 | 55.71534 | 15.24106 | 38222 ft | 467 kts | 224° |
| 2026-04-26 16:20 | 55.63834 | 15.13505 | 38197 ft | 467 kts | 224° |
| 2026-04-26 16:20 | 55.56131 | 15.02949 | 38234 ft | 467 kts | 224° |
| 2026-04-26 16:21 | 55.51030 | 14.95987 | 38236 ft | 467 kts | 224° |
| 2026-04-26 16:21 | 55.45886 | 14.88991 | 38245 ft | 467 kts | 224° |
| 2026-04-26 16:22 | 55.40735 | 14.82009 | 38229 ft | 467 kts | 224° |
| 2026-04-26 16:22 | 55.35638 | 14.75127 | 38243 ft | 464 kts | 224° |
| 2026-04-26 16:23 | 55.30517 | 14.68231 | 38252 ft | 463 kts | 224° |
| 2026-04-26 16:23 | 55.25394 | 14.61355 | 38257 ft | 463 kts | 224° |
| 2026-04-26 16:24 | 55.21134 | 14.55654 | 38262 ft | 464 kts | 224° |
| 2026-04-26 16:24 | 55.16000 | 14.48807 | 38258 ft | 464 kts | 224° |
| 2026-04-26 16:25 | 55.10030 | 14.40873 | 38260 ft | 464 kts | 224° |
| 2026-04-26 16:25 | 55.04890 | 14.34064 | 38257 ft | 463 kts | 224° |
| 2026-04-26 16:26 | 55.00621 | 14.28429 | 38264 ft | 463 kts | 223° |
| 2026-04-26 16:26 | 54.95491 | 14.21680 | 38269 ft | 462 kts | 223° |
| 2026-04-26 16:27 | 54.89609 | 14.13701 | 38281 ft | 459 kts | 226° |
| 2026-04-26 16:27 | 54.84666 | 14.06647 | 38269 ft | 460 kts | 226° |
| 2026-04-26 16:28 | 54.80549 | 14.00804 | 38291 ft | 460 kts | 225° |
| 2026-04-26 16:28 | 54.75594 | 13.93787 | 38296 ft | 460 kts | 225° |
| 2026-04-26 16:29 | 54.70638 | 13.86783 | 38270 ft | 459 kts | 225° |
| 2026-04-26 16:29 | 54.64888 | 13.78689 | 38288 ft | 458 kts | 225° |
| 2026-04-26 16:30 | 54.60771 | 13.72913 | 38286 ft | 459 kts | 225° |
| 2026-04-26 16:30 | 54.55812 | 13.65975 | 38294 ft | 459 kts | 225° |
| 2026-04-26 16:31 | 54.50852 | 13.59056 | 38294 ft | 459 kts | 225° |
| 2026-04-26 16:31 | 54.45888 | 13.52156 | 38284 ft | 458 kts | 225° |
| 2026-04-26 16:32 | 54.40963 | 13.45328 | 38276 ft | 457 kts | 225° |
| 2026-04-26 16:32 | 54.36004 | 13.38478 | 38290 ft | 457 kts | 224° |
| 2026-04-26 16:33 | 54.31044 | 13.31650 | 38291 ft | 457 kts | 224° |
| 2026-04-26 16:33 | 54.26077 | 13.24833 | 38284 ft | 457 kts | 224° |
| 2026-04-26 16:34 | 54.21117 | 13.18047 | 38289 ft | 456 kts | 224° |
| 2026-04-26 16:34 | 54.16183 | 13.11319 | 38292 ft | 457 kts | 224° |
| 2026-04-26 16:35 | 54.11215 | 13.04565 | 38298 ft | 457 kts | 224° |
| 2026-04-26 16:35 | 54.06245 | 12.97828 | 38311 ft | 457 kts | 224° |
| 2026-04-26 16:36 | 54.01275 | 12.91110 | 38295 ft | 455 kts | 224° |
| 2026-04-26 16:36 | 53.96350 | 12.84479 | 38297 ft | 455 kts | 224° |
| 2026-04-26 16:37 | 53.91384 | 12.77813 | 38297 ft | 455 kts | 224° |
| 2026-04-26 16:37 | 53.86417 | 12.71164 | 38295 ft | 455 kts | 224° |
| 2026-04-26 16:38 | 53.81442 | 12.64524 | 38271 ft | 454 kts | 224° |
| 2026-04-26 16:38 | 53.76481 | 12.57921 | 38279 ft | 453 kts | 223° |
| 2026-04-26 16:39 | 53.71548 | 12.51382 | 38296 ft | 453 kts | 223° |
| 2026-04-26 16:39 | 53.66579 | 12.44816 | 38296 ft | 453 kts | 223° |
| 2026-04-26 16:40 | 53.61606 | 12.38263 | 38292 ft | 453 kts | 223° |
| 2026-04-26 16:40 | 53.56613 | 12.31698 | 38288 ft | 453 kts | 223° |
| 2026-04-26 16:41 | 53.51637 | 12.25182 | 38290 ft | 453 kts | 223° |
| 2026-04-26 16:41 | 53.46694 | 12.18729 | 38291 ft | 453 kts | 223° |
| 2026-04-26 16:42 | 53.41715 | 12.12248 | 38290 ft | 453 kts | 223° |